sensor_id;sensor_type;location;lat;lon;timestamp;pressure;altitude;pressure_sealevel;temperature;humidity
56330;BME280;42236;48.058;10.632;2023-03-20T00:00:53;94902.28;;;8.37;86.15
56330;BME280;42236;48.058;10.632;2023-03-20T00:03:40;94909.75;;;8.40;85.72
56330;BME280;42236;48.058;10.632;2023-03-20T00:06:26;94909.75;;;8.40;85.87
56330;BME280;42236;48.058;10.632;2023-03-20T00:09:15;94910.53;;;8.41;85.70
56330;BME280;42236;48.058;10.632;2023-03-20T00:12:02;94912.13;;;8.42;85.46
56330;BME280;42236;48.058;10.632;2023-03-20T00:14:48;94906.56;;;8.38;85.47
56330;BME280;42236;48.058;10.632;2023-03-20T00:17:33;94915.25;;;8.35;85.54
56330;BME280;42236;48.058;10.632;2023-03-20T00:20:20;94913.03;;;8.28;85.40
56330;BME280;42236;48.058;10.632;2023-03-20T00:23:06;94920.19;;;8.24;85.83
56330;BME280;42236;48.058;10.632;2023-03-20T00:25:51;94914.81;;;8.16;86.25
56330;BME280;42236;48.058;10.632;2023-03-20T00:28:41;94911.66;;;8.13;86.33
56330;BME280;42236;48.058;10.632;2023-03-20T00:31:30;94912.94;;;8.07;86.27
56330;BME280;42236;48.058;10.632;2023-03-20T00:34:17;94918.59;;;7.97;86.41
56330;BME280;42236;48.058;10.632;2023-03-20T00:37:03;94912.13;;;7.89;86.69
56330;BME280;42236;48.058;10.632;2023-03-20T00:39:49;94909.94;;;7.83;87.20
56330;BME280;42236;48.058;10.632;2023-03-20T00:42:36;94905.19;;;7.80;86.99
56330;BME280;42236;48.058;10.632;2023-03-20T00:45:22;94916.56;;;7.77;87.25
56330;BME280;42236;48.058;10.632;2023-03-20T00:48:09;94910.22;;;7.73;87.21
56330;BME280;42236;48.058;10.632;2023-03-20T00:50:57;94908.97;;;7.70;87.18
56330;BME280;42236;48.058;10.632;2023-03-20T00:53:43;94910.09;;;7.69;87.45
56330;BME280;42236;48.058;10.632;2023-03-20T00:56:39;94903.94;;;7.68;87.20
56330;BME280;42236;48.058;10.632;2023-03-20T00:59:35;94902.19;;;7.73;87.39
56330;BME280;42236;48.058;10.632;2023-03-20T01:02:25;94902.66;;;7.75;86.57
56330;BME280;42236;48.058;10.632;2023-03-20T01:05:13;94909.28;;;7.77;86.33
56330;BME280;42236;48.058;10.632;2023-03-20T01:07:58;94903.91;;;7.77;86.32
56330;BME280;42236;48.058;10.632;2023-03-20T01:10:45;94906.44;;;7.82;86.19
56330;BME280;42236;48.058;10.632;2023-03-20T01:13:31;94908.97;;;7.87;86.45
56330;BME280;42236;48.058;10.632;2023-03-20T01:16:23;94902.66;;;7.92;86.41
56330;BME280;42236;48.058;10.632;2023-03-20T01:19:12;94902.03;;;7.95;85.73
56330;BME280;42236;48.058;10.632;2023-03-20T01:21:58;94905.66;;;7.99;85.62
56330;BME280;42236;48.058;10.632;2023-03-20T01:24:44;94907.72;;;8.02;85.54
56330;BME280;42236;48.058;10.632;2023-03-20T01:27:30;94905.97;;;8.06;85.17
56330;BME280;42236;48.058;10.632;2023-03-20T01:30:20;94901.06;;;8.08;85.49
56330;BME280;42236;48.058;10.632;2023-03-20T01:33:15;94906.75;;;8.07;85.46
56330;BME280;42236;48.058;10.632;2023-03-20T01:36:01;94901.22;;;8.03;85.22
56330;BME280;42236;48.058;10.632;2023-03-20T01:38:54;94899.50;;;7.99;85.20
56330;BME280;42236;48.058;10.632;2023-03-20T01:41:40;94904.72;;;7.95;84.95
56330;BME280;42236;48.058;10.632;2023-03-20T01:44:32;94905.81;;;7.94;85.38
56330;BME280;42236;48.058;10.632;2023-03-20T01:47:21;94899.34;;;7.95;85.23
56330;BME280;42236;48.058;10.632;2023-03-20T01:50:18;94890.81;;;7.93;85.51
56330;BME280;42236;48.058;10.632;2023-03-20T01:53:08;94894.13;;;7.90;85.11
56330;BME280;42236;48.058;10.632;2023-03-20T01:55:57;94900.13;;;7.87;84.90
56330;BME280;42236;48.058;10.632;2023-03-20T01:58:46;94894.59;;;7.75;84.82
56330;BME280;42236;48.058;10.632;2023-03-20T02:01:33;94891.13;;;7.65;84.82
56330;BME280;42236;48.058;10.632;2023-03-20T02:04:25;94894.09;;;7.46;85.14
56330;BME280;42236;48.058;10.632;2023-03-20T02:07:15;94878.75;;;7.30;85.51
56330;BME280;42236;48.058;10.632;2023-03-20T02:10:05;94886.31;;;7.19;85.58
56330;BME280;42236;48.058;10.632;2023-03-20T02:12:53;94885.69;;;7.13;85.86
56330;BME280;42236;48.058;10.632;2023-03-20T02:16:02;94887.56;;;7.13;86.80
56330;BME280;42236;48.058;10.632;2023-03-20T02:18:50;94882.50;;;7.11;85.96
56330;BME280;42236;48.058;10.632;2023-03-20T02:22:04;94887.41;;;7.09;85.68
56330;BME280;42236;48.058;10.632;2023-03-20T02:25:06;94886.91;;;6.98;85.29
56330;BME280;42236;48.058;10.632;2023-03-20T02:28:33;94903.25;;;6.79;86.48
56330;BME280;42236;48.058;10.632;2023-03-20T02:35:22;94902.72;;;6.69;87.20
56330;BME280;42236;48.058;10.632;2023-03-20T02:38:40;94894.03;;;6.63;87.42
56330;BME280;42236;48.058;10.632;2023-03-20T02:41:42;94891.63;;;6.61;87.89
56330;BME280;42236;48.058;10.632;2023-03-20T02:44:42;94886.59;;;6.60;87.16
56330;BME280;42236;48.058;10.632;2023-03-20T02:47:36;94887.53;;;6.55;88.10
56330;BME280;42236;48.058;10.632;2023-03-20T02:50:36;94888.44;;;6.51;89.03
56330;BME280;42236;48.058;10.632;2023-03-20T02:59:44;94890.34;;;6.50;88.94
56330;BME280;42236;48.058;10.632;2023-03-20T03:02:38;94898.69;;;6.49;89.10
56330;BME280;42236;48.058;10.632;2023-03-20T03:05:36;94897.69;;;6.45;89.59
56330;BME280;42236;48.058;10.632;2023-03-20T03:08:27;94901.50;;;6.44;89.02
56330;BME280;42236;48.058;10.632;2023-03-20T03:11:15;94904.31;;;6.38;88.99
56330;BME280;42236;48.058;10.632;2023-03-20T03:14:03;94913.06;;;6.30;89.71
56330;BME280;42236;48.058;10.632;2023-03-20T03:16:51;94913.31;;;6.20;90.20
56330;BME280;42236;48.058;10.632;2023-03-20T03:19:41;94921.63;;;6.10;91.00
56330;BME280;42236;48.058;10.632;2023-03-20T03:22:28;94916.97;;;6.02;91.24
56330;BME280;42236;48.058;10.632;2023-03-20T03:25:14;94924.34;;;5.96;91.71
56330;BME280;42236;48.058;10.632;2023-03-20T03:30:49;94934.66;;;5.89;91.28
56330;BME280;42236;48.058;10.632;2023-03-20T03:33:38;94936.03;;;5.86;92.07
56330;BME280;42236;48.058;10.632;2023-03-20T03:36:45;94937.66;;;5.87;92.41
56330;BME280;42236;48.058;10.632;2023-03-20T03:39:40;94930.06;;;5.89;92.15
56330;BME280;42236;48.058;10.632;2023-03-20T03:42:32;94943.16;;;5.91;92.00
56330;BME280;42236;48.058;10.632;2023-03-20T03:48:17;94950.34;;;5.82;91.40
56330;BME280;42236;48.058;10.632;2023-03-20T03:51:08;94954.91;;;5.81;91.00
56330;BME280;42236;48.058;10.632;2023-03-20T03:54:04;94954.13;;;5.81;91.74
56330;BME280;42236;48.058;10.632;2023-03-20T03:56:53;94956.47;;;5.82;91.97
56330;BME280;42236;48.058;10.632;2023-03-20T03:59:43;94955.28;;;5.88;91.50
56330;BME280;42236;48.058;10.632;2023-03-20T04:02:30;94947.38;;;5.97;90.81
56330;BME280;42236;48.058;10.632;2023-03-20T04:05:18;94955.56;;;6.01;90.19
56330;BME280;42236;48.058;10.632;2023-03-20T04:08:05;94951.91;;;5.96;89.94
56330;BME280;42236;48.058;10.632;2023-03-20T04:10:51;94959.47;;;5.94;90.10
56330;BME280;42236;48.058;10.632;2023-03-20T04:13:37;94959.47;;;5.94;90.75
56330;BME280;42236;48.058;10.632;2023-03-20T04:16:23;94958.84;;;5.97;90.29
56330;BME280;42236;48.058;10.632;2023-03-20T04:19:09;94963.09;;;5.98;89.89
56330;BME280;42236;48.058;10.632;2023-03-20T04:21:55;94971.75;;;5.95;90.14
56330;BME280;42236;48.058;10.632;2023-03-20T04:24:40;94965.59;;;5.95;90.77
56330;BME280;42236;48.058;10.632;2023-03-20T04:27:26;94966.97;;;5.92;90.05
56330;BME280;42236;48.058;10.632;2023-03-20T04:30:12;94970.72;;;5.91;90.36
56330;BME280;42236;48.058;10.632;2023-03-20T04:32:58;94976.09;;;5.91;89.79
56330;BME280;42236;48.058;10.632;2023-03-20T04:35:43;94980.88;;;5.94;90.17
56330;BME280;42236;48.058;10.632;2023-03-20T04:38:29;94976.50;;;5.98;90.05
56330;BME280;42236;48.058;10.632;2023-03-20T04:41:15;94982.06;;;6.02;90.38
56330;BME280;42236;48.058;10.632;2023-03-20T04:44:00;94978.09;;;6.00;90.36
56330;BME280;42236;48.058;10.632;2023-03-20T04:46:46;94976.00;;;5.96;89.96
56330;BME280;42236;48.058;10.632;2023-03-20T04:49:32;94982.16;;;5.97;89.81
56330;BME280;42236;48.058;10.632;2023-03-20T04:52:17;94981.69;;;5.95;89.60
56330;BME280;42236;48.058;10.632;2023-03-20T04:55:03;94985.72;;;5.92;89.45
56330;BME280;42236;48.058;10.632;2023-03-20T04:57:49;94984.25;;;5.86;90.12
56330;BME280;42236;48.058;10.632;2023-03-20T05:00:35;94979.50;;;5.83;89.94
56330;BME280;42236;48.058;10.632;2023-03-20T05:03:20;94988.03;;;5.85;90.49
56330;BME280;42236;48.058;10.632;2023-03-20T05:06:06;94988.81;;;5.86;90.33
56330;BME280;42236;48.058;10.632;2023-03-20T05:08:52;94990.69;;;5.85;90.55
56330;BME280;42236;48.058;10.632;2023-03-20T05:11:38;94980.47;;;5.87;90.83
56330;BME280;42236;48.058;10.632;2023-03-20T05:14:23;94985.22;;;5.90;90.49
56330;BME280;42236;48.058;10.632;2023-03-20T05:17:09;94993.75;;;5.92;90.52
56330;BME280;42236;48.058;10.632;2023-03-20T05:19:55;94988.41;;;5.92;91.23
56330;BME280;42236;48.058;10.632;2023-03-20T05:22:41;95000.69;;;5.93;92.01
56330;BME280;42236;48.058;10.632;2023-03-20T05:25:27;94997.50;;;5.91;92.10
56330;BME280;42236;48.058;10.632;2023-03-20T05:28:13;94994.34;;;5.89;92.27
56330;BME280;42236;48.058;10.632;2023-03-20T05:30:58;95004.25;;;5.89;93.68
56330;BME280;42236;48.058;10.632;2023-03-20T05:33:44;95008.22;;;5.91;94.43
56330;BME280;42236;48.058;10.632;2023-03-20T05:36:30;95011.81;;;6.01;94.76
56330;BME280;42236;48.058;10.632;2023-03-20T05:39:16;95005.72;;;6.09;95.43
56330;BME280;42236;48.058;10.632;2023-03-20T05:42:01;95007.69;;;6.17;94.63
56330;BME280;42236;48.058;10.632;2023-03-20T05:44:47;95013.09;;;6.26;94.38
56330;BME280;42236;48.058;10.632;2023-03-20T05:47:33;95006.38;;;6.28;94.25
56330;BME280;42236;48.058;10.632;2023-03-20T05:50:18;95013.19;;;6.34;94.33
56330;BME280;42236;48.058;10.632;2023-03-20T05:53:04;95025.38;;;6.40;94.81
56330;BME280;42236;48.058;10.632;2023-03-20T05:55:50;95024.94;;;6.47;94.07
56330;BME280;42236;48.058;10.632;2023-03-20T05:58:36;95026.69;;;6.52;93.60
56330;BME280;42236;48.058;10.632;2023-03-20T06:01:21;95020.91;;;6.58;93.31
56330;BME280;42236;48.058;10.632;2023-03-20T06:04:07;95023.81;;;6.62;93.82
56330;BME280;42236;48.058;10.632;2023-03-20T06:06:53;95025.25;;;6.68;93.15
56330;BME280;42236;48.058;10.632;2023-03-20T06:09:39;95023.22;;;6.74;93.62
56330;BME280;42236;48.058;10.632;2023-03-20T06:12:24;95027.66;;;6.78;93.48
56330;BME280;42236;48.058;10.632;2023-03-20T06:15:10;95020.59;;;6.82;93.30
56330;BME280;42236;48.058;10.632;2023-03-20T06:17:56;95024.75;;;6.89;93.71
56330;BME280;42236;48.058;10.632;2023-03-20T06:20:42;95028.88;;;6.95;92.98
56330;BME280;42236;48.058;10.632;2023-03-20T06:23:27;95030.50;;;7.04;92.67
56330;BME280;42236;48.058;10.632;2023-03-20T06:26:13;95026.91;;;7.09;92.48
56330;BME280;42236;48.058;10.632;2023-03-20T06:28:59;95035.91;;;7.13;92.91
56330;BME280;42236;48.058;10.632;2023-03-20T06:31:44;95038.34;;;7.23;92.81
56330;BME280;42236;48.058;10.632;2023-03-20T06:34:30;95033.59;;;7.29;92.88
56330;BME280;42236;48.058;10.632;2023-03-20T06:37:16;95036.16;;;7.34;91.98
56330;BME280;42236;48.058;10.632;2023-03-20T06:40:03;95044.69;;;7.36;92.50
56330;BME280;42236;48.058;10.632;2023-03-20T06:42:49;95046.44;;;7.41;92.10
56330;BME280;42236;48.058;10.632;2023-03-20T06:45:35;95050.59;;;7.47;92.04
56330;BME280;42236;48.058;10.632;2023-03-20T06:48:21;95047.75;;;7.52;91.80
56330;BME280;42236;48.058;10.632;2023-03-20T06:51:07;95049.53;;;7.57;91.88
56330;BME280;42236;48.058;10.632;2023-03-20T06:53:52;95050.66;;;7.64;91.78
56330;BME280;42236;48.058;10.632;2023-03-20T06:56:38;95057.44;;;7.70;91.76
56330;BME280;42236;48.058;10.632;2023-03-20T06:59:24;95055.72;;;7.75;91.11
56330;BME280;42236;48.058;10.632;2023-03-20T07:02:10;95060.34;;;7.83;91.04
56330;BME280;42236;48.058;10.632;2023-03-20T07:04:56;95066.34;;;7.88;90.55
56330;BME280;42236;48.058;10.632;2023-03-20T07:07:42;95071.88;;;7.92;90.97
56330;BME280;42236;48.058;10.632;2023-03-20T07:10:27;95074.41;;;7.97;90.38
56330;BME280;42236;48.058;10.632;2023-03-20T07:13:13;95062.91;;;8.05;89.88
56330;BME280;42236;48.058;10.632;2023-03-20T07:15:59;95066.72;;;8.13;89.74
56330;BME280;42236;48.058;10.632;2023-03-20T07:18:45;95062.47;;;8.21;90.26
56330;BME280;42236;48.058;10.632;2023-03-20T07:21:32;95061.34;;;8.30;89.85
56330;BME280;42236;48.058;10.632;2023-03-20T07:24:18;95058.09;;;8.42;89.36
56330;BME280;42236;48.058;10.632;2023-03-20T07:27:04;95066.94;;;8.51;88.62
56330;BME280;42236;48.058;10.632;2023-03-20T07:29:49;95062.66;;;8.59;88.36
56330;BME280;42236;48.058;10.632;2023-03-20T07:32:35;95070.09;;;8.71;88.01
56330;BME280;42236;48.058;10.632;2023-03-20T07:35:21;95075.97;;;8.73;87.99
56330;BME280;42236;48.058;10.632;2023-03-20T07:38:07;95070.09;;;8.71;87.78
56330;BME280;42236;48.058;10.632;2023-03-20T07:40:53;95080.38;;;8.69;87.64
56330;BME280;42236;48.058;10.632;2023-03-20T07:43:39;95074.22;;;8.60;87.49
56330;BME280;42236;48.058;10.632;2023-03-20T07:46:25;95072.63;;;8.59;87.70
56330;BME280;42236;48.058;10.632;2023-03-20T07:49:10;95073.91;;;8.70;87.59
56330;BME280;42236;48.058;10.632;2023-03-20T07:51:56;95073.28;;;8.73;87.68
56330;BME280;42236;48.058;10.632;2023-03-20T07:54:42;95077.06;;;8.81;87.01
56330;BME280;42236;48.058;10.632;2023-03-20T07:57:28;95073.56;;;8.89;86.82
56330;BME280;42236;48.058;10.632;2023-03-20T08:00:14;95076.41;;;8.92;86.44
56330;BME280;42236;48.058;10.632;2023-03-20T08:03:00;95076.38;;;9.01;86.63
56330;BME280;42236;48.058;10.632;2023-03-20T08:05:46;95066.56;;;9.14;86.40
56330;BME280;42236;48.058;10.632;2023-03-20T08:08:32;95068.44;;;9.22;85.69
56330;BME280;42236;48.058;10.632;2023-03-20T08:11:18;95057.97;;;9.29;85.34
56330;BME280;42236;48.058;10.632;2023-03-20T08:14:04;95058.13;;;9.24;84.71
56330;BME280;42236;48.058;10.632;2023-03-20T08:16:50;95055.75;;;9.31;84.48
56330;BME280;42236;48.058;10.632;2023-03-20T08:19:35;95056.22;;;9.25;84.16
56330;BME280;42236;48.058;10.632;2023-03-20T08:22:22;95061.16;;;9.23;83.73
56330;BME280;42236;48.058;10.632;2023-03-20T08:25:08;95065.44;;;9.24;84.95
56330;BME280;42236;48.058;10.632;2023-03-20T08:27:54;95066.03;;;9.38;84.23
56330;BME280;42236;48.058;10.632;2023-03-20T08:30:39;95062.19;;;9.48;82.81
56330;BME280;42236;48.058;10.632;2023-03-20T08:33:25;95064.22;;;9.51;83.12
56330;BME280;42236;48.058;10.632;2023-03-20T08:36:12;95064.16;;;9.68;82.56
56330;BME280;42236;48.058;10.632;2023-03-20T08:38:59;95066.28;;;9.54;81.47
56330;BME280;42236;48.058;10.632;2023-03-20T08:41:45;95060.88;;;9.54;81.73
56330;BME280;42236;48.058;10.632;2023-03-20T08:44:31;95062.47;;;9.55;81.01
56330;BME280;42236;48.058;10.632;2023-03-20T08:47:17;95068.19;;;9.53;80.88
56330;BME280;42236;48.058;10.632;2023-03-20T08:50:04;95070.69;;;9.58;80.83
56330;BME280;42236;48.058;10.632;2023-03-20T08:52:51;95066.84;;;9.68;80.75
56330;BME280;42236;48.058;10.632;2023-03-20T08:55:37;95062.22;;;9.77;80.84
56330;BME280;42236;48.058;10.632;2023-03-20T08:58:23;95065.59;;;9.95;80.53
56330;BME280;42236;48.058;10.632;2023-03-20T09:01:08;95076.53;;;9.99;79.29
56330;BME280;42236;48.058;10.632;2023-03-20T09:03:54;95072.00;;;9.91;79.02
56330;BME280;42236;48.058;10.632;2023-03-20T09:06:40;95080.53;;;9.93;79.50
56330;BME280;42236;48.058;10.632;2023-03-20T09:09:26;95071.47;;;9.97;78.82
56330;BME280;42236;48.058;10.632;2023-03-20T09:12:13;95073.34;;;10.06;79.03
56330;BME280;42236;48.058;10.632;2023-03-20T09:14:59;95083.78;;;10.07;78.71
56330;BME280;42236;48.058;10.632;2023-03-20T09:17:45;95078.53;;;10.11;78.80
56330;BME280;42236;48.058;10.632;2023-03-20T09:20:31;95079.31;;;10.11;78.85
56330;BME280;42236;48.058;10.632;2023-03-20T09:23:17;95079.03;;;10.34;79.06
56330;BME280;42236;48.058;10.632;2023-03-20T09:26:03;95076.69;;;10.32;78.05
56330;BME280;42236;48.058;10.632;2023-03-20T09:28:49;95074.78;;;10.24;77.72
56330;BME280;42236;48.058;10.632;2023-03-20T09:31:35;95079.13;;;10.16;77.64
56330;BME280;42236;48.058;10.632;2023-03-20T09:34:21;95072.03;;;10.41;77.59
56330;BME280;42236;48.058;10.632;2023-03-20T09:37:07;95067.97;;;10.56;76.74
56330;BME280;42236;48.058;10.632;2023-03-20T09:39:52;95063.19;;;10.74;76.03
56330;BME280;42236;48.058;10.632;2023-03-20T09:43:01;95064.28;;;10.94;74.08
56330;BME280;42236;48.058;10.632;2023-03-20T09:48:53;95066.31;;;10.64;73.85
56330;BME280;42236;48.058;10.632;2023-03-20T09:51:54;95064.84;;;10.45;74.55
56330;BME280;42236;48.058;10.632;2023-03-20T09:54:43;95060.44;;;10.41;75.53
56330;BME280;42236;48.058;10.632;2023-03-20T09:57:41;95064.34;;;10.52;75.07
56330;BME280;42236;48.058;10.632;2023-03-20T10:00:30;95054.41;;;10.44;75.16
56330;BME280;42236;48.058;10.632;2023-03-20T10:03:21;95047.22;;;10.48;75.47
56330;BME280;42236;48.058;10.632;2023-03-20T10:06:14;95055.38;;;10.60;73.63
56330;BME280;42236;48.058;10.632;2023-03-20T10:09:05;95052.56;;;10.57;73.76
56330;BME280;42236;48.058;10.632;2023-03-20T10:12:28;95045.66;;;10.47;73.38
56330;BME280;42236;48.058;10.632;2023-03-20T10:18:28;95047.22;;;10.69;73.27
56330;BME280;42236;48.058;10.632;2023-03-20T10:21:28;95051.00;;;10.89;71.57
56330;BME280;42236;48.058;10.632;2023-03-20T10:24:24;95050.47;;;10.96;71.37
56330;BME280;42236;48.058;10.632;2023-03-20T10:27:24;95043.63;;;10.77;70.92
56330;BME280;42236;48.058;10.632;2023-03-20T10:36:53;95042.41;;;10.75;69.26
56330;BME280;42236;48.058;10.632;2023-03-20T10:39:50;95041.66;;;10.86;68.83
56330;BME280;42236;48.058;10.632;2023-03-20T10:42:43;95033.44;;;10.83;67.52
56330;BME280;42236;48.058;10.632;2023-03-20T10:45:51;95043.47;;;10.61;70.13
56330;BME280;42236;48.058;10.632;2023-03-20T10:48:43;95034.19;;;10.50;71.83
56330;BME280;42236;48.058;10.632;2023-03-20T10:51:41;95044.72;;;10.43;73.06
56330;BME280;42236;48.058;10.632;2023-03-20T10:54:54;95040.50;;;10.33;73.43
56330;BME280;42236;48.058;10.632;2023-03-20T10:57:52;95037.44;;;10.14;73.15
56330;BME280;42236;48.058;10.632;2023-03-20T11:00:40;95045.56;;;10.05;73.20
56330;BME280;42236;48.058;10.632;2023-03-20T11:03:28;95035.41;;;10.11;73.43
56330;BME280;42236;48.058;10.632;2023-03-20T11:06:18;95039.16;;;10.18;73.36
56330;BME280;42236;48.058;10.632;2023-03-20T11:09:19;95050.22;;;10.25;72.66
56330;BME280;42236;48.058;10.632;2023-03-20T11:12:15;95048.94;;;10.32;72.50
56330;BME280;42236;48.058;10.632;2023-03-20T11:15:17;95039.84;;;10.36;72.39
56330;BME280;42236;48.058;10.632;2023-03-20T11:18:06;95036.16;;;10.41;72.97
56330;BME280;42236;48.058;10.632;2023-03-20T11:20:56;95037.50;;;10.35;72.15
56330;BME280;42236;48.058;10.632;2023-03-20T11:23:42;95037.69;;;10.30;71.99
56330;BME280;42236;48.058;10.632;2023-03-20T11:26:35;95042.75;;;10.31;71.87
56330;BME280;42236;48.058;10.632;2023-03-20T11:29:29;95045.78;;;10.30;71.70
56330;BME280;42236;48.058;10.632;2023-03-20T11:32:40;95037.69;;;10.30;72.21
56330;BME280;42236;48.058;10.632;2023-03-20T11:35:28;95044.34;;;10.23;72.10
56330;BME280;42236;48.058;10.632;2023-03-20T11:38:20;95048.50;;;10.21;71.94
56330;BME280;42236;48.058;10.632;2023-03-20T11:41:16;95040.28;;;10.17;70.63
56330;BME280;42236;48.058;10.632;2023-03-20T11:44:03;95046.59;;;10.21;71.05
56330;BME280;42236;48.058;10.632;2023-03-20T11:46:55;95042.44;;;10.24;71.01
56330;BME280;42236;48.058;10.632;2023-03-20T11:49:53;95046.38;;;10.26;70.24
56330;BME280;42236;48.058;10.632;2023-03-20T11:52:39;95040.31;;;10.38;71.04
56330;BME280;42236;48.058;10.632;2023-03-20T11:55:32;95039.06;;;10.36;70.36
56330;BME280;42236;48.058;10.632;2023-03-20T11:58:19;95042.88;;;10.35;70.48
56330;BME280;42236;48.058;10.632;2023-03-20T12:01:07;95045.28;;;10.28;69.46
56330;BME280;42236;48.058;10.632;2023-03-20T12:04:09;95035.47;;;10.32;69.88
56330;BME280;42236;48.058;10.632;2023-03-20T12:07:00;95042.88;;;10.35;70.56
56330;BME280;42236;48.058;10.632;2023-03-20T12:10:00;95033.72;;;10.48;70.27
56330;BME280;42236;48.058;10.632;2023-03-20T12:13:11;95030.09;;;10.65;69.12
56330;BME280;42236;48.058;10.632;2023-03-20T12:16:09;95033.50;;;10.74;68.70
56330;BME280;42236;48.058;10.632;2023-03-20T12:19:02;95029.44;;;11.01;69.21
56330;BME280;42236;48.058;10.632;2023-03-20T12:22:01;95034.34;;;11.32;66.96
56330;BME280;42236;48.058;10.632;2023-03-20T12:25:19;95032.50;;;11.58;64.19
56330;BME280;42236;48.058;10.632;2023-03-20T12:28:22;95027.66;;;11.75;67.15
56330;BME280;42236;48.058;10.632;2023-03-20T12:34:36;95019.88;;;11.86;66.78
56330;BME280;42236;48.058;10.632;2023-03-20T12:37:24;95027.56;;;11.97;66.42
56330;BME280;42236;48.058;10.632;2023-03-20T12:40:15;95026.44;;;11.98;65.65
56330;BME280;42236;48.058;10.632;2023-03-20T12:43:24;95008.88;;;11.91;64.30
56330;BME280;42236;48.058;10.632;2023-03-20T12:49:33;95011.66;;;11.83;65.85
56330;BME280;42236;48.058;10.632;2023-03-20T12:59:04;95005.00;;;11.43;64.77
56330;BME280;42236;48.058;10.632;2023-03-20T13:01:30;95008.59;;;11.35;66.67
56330;BME280;42236;48.058;10.632;2023-03-20T13:07:20;95011.50;;;11.18;66.28
56330;BME280;42236;48.058;10.632;2023-03-20T13:10:14;95003.28;;;11.14;66.80
56330;BME280;42236;48.058;10.632;2023-03-20T13:16:07;95010.44;;;10.98;66.63
56330;BME280;42236;48.058;10.632;2023-03-20T13:19:06;95006.47;;;10.83;65.78
56330;BME280;42236;48.058;10.632;2023-03-20T13:24:49;95007.97;;;10.72;66.63
56330;BME280;42236;48.058;10.632;2023-03-20T13:27:47;95007.56;;;10.82;66.01
56330;BME280;42236;48.058;10.632;2023-03-20T13:30:42;95003.75;;;10.83;65.65
56330;BME280;42236;48.058;10.632;2023-03-20T13:33:42;94999.75;;;11.01;65.55
56330;BME280;42236;48.058;10.632;2023-03-20T13:39:45;95008.00;;;11.17;64.17
56330;BME280;42236;48.058;10.632;2023-03-20T13:43:27;94999.91;;;11.29;63.83
56330;BME280;42236;48.058;10.632;2023-03-20T13:45:47;94998.00;;;11.42;64.20
56330;BME280;42236;48.058;10.632;2023-03-20T13:48:38;94998.00;;;11.54;64.38
56330;BME280;42236;48.058;10.632;2023-03-20T13:54:36;95001.31;;;11.60;62.89
56330;BME280;42236;48.058;10.632;2023-03-20T14:03:44;94989.69;;;11.60;64.28
56330;BME280;42236;48.058;10.632;2023-03-20T14:12:15;94987.91;;;11.88;63.27
56330;BME280;42236;48.058;10.632;2023-03-20T14:15:02;94986.56;;;11.94;63.08
56330;BME280;42236;48.058;10.632;2023-03-20T14:17:49;94988.25;;;11.99;63.33
56330;BME280;42236;48.058;10.632;2023-03-20T14:20:40;94985.19;;;12.01;62.56
56330;BME280;42236;48.058;10.632;2023-03-20T14:23:35;94986.31;;;12.00;63.24
56330;BME280;42236;48.058;10.632;2023-03-20T14:26:25;94977.75;;;11.98;62.98
56330;BME280;42236;48.058;10.632;2023-03-20T14:35:17;94980.47;;;11.61;64.28
56330;BME280;42236;48.058;10.632;2023-03-20T14:38:26;94972.81;;;11.50;64.47
56330;BME280;42236;48.058;10.632;2023-03-20T14:41:23;94976.06;;;11.56;64.28
56330;BME280;42236;48.058;10.632;2023-03-20T14:44:25;94972.81;;;11.63;64.72
56330;BME280;42236;48.058;10.632;2023-03-20T14:50:24;94970.34;;;11.45;64.21
56330;BME280;42236;48.058;10.632;2023-03-20T14:53:21;94969.44;;;11.41;64.84
56330;BME280;42236;48.058;10.632;2023-03-20T14:56:13;94975.72;;;11.33;64.40
56330;BME280;42236;48.058;10.632;2023-03-20T14:59:09;94968.53;;;11.37;64.87
56330;BME280;42236;48.058;10.632;2023-03-20T15:01:59;94961.56;;;11.36;65.31
56330;BME280;42236;48.058;10.632;2023-03-20T15:04:46;94955.59;;;11.55;65.13
56330;BME280;42236;48.058;10.632;2023-03-20T15:07:35;94960.19;;;11.67;64.33
56330;BME280;42236;48.058;10.632;2023-03-20T15:10:24;94948.47;;;11.75;64.43
56330;BME280;42236;48.058;10.632;2023-03-20T15:13:12;94954.69;;;11.63;64.77
56330;BME280;42236;48.058;10.632;2023-03-20T15:16:04;94953.78;;;11.59;64.72
56330;BME280;42236;48.058;10.632;2023-03-20T15:18:52;94952.66;;;11.48;64.42
56330;BME280;42236;48.058;10.632;2023-03-20T15:21:39;94947.59;;;11.34;64.73
56330;BME280;42236;48.058;10.632;2023-03-20T15:24:28;94945.56;;;11.31;64.79
56330;BME280;42236;48.058;10.632;2023-03-20T15:27:14;94950.41;;;11.25;65.18
56330;BME280;42236;48.058;10.632;2023-03-20T15:30:01;94942.06;;;11.30;65.03
56330;BME280;42236;48.058;10.632;2023-03-20T15:32:52;94932.41;;;11.42;64.83
56330;BME280;42236;48.058;10.632;2023-03-20T15:35:39;94929.38;;;11.43;64.85
56330;BME280;42236;48.058;10.632;2023-03-20T15:38:32;94929.38;;;11.31;64.72
56330;BME280;42236;48.058;10.632;2023-03-20T15:41:31;94927.31;;;11.28;65.65
56330;BME280;42236;48.058;10.632;2023-03-20T15:44:36;94926.66;;;11.31;65.37
56330;BME280;42236;48.058;10.632;2023-03-20T15:47:24;94925.06;;;11.30;65.47
56330;BME280;42236;48.058;10.632;2023-03-20T15:50:11;94930.25;;;11.35;65.27
56330;BME280;42236;48.058;10.632;2023-03-20T15:52:57;94928.13;;;11.28;65.31
56330;BME280;42236;48.058;10.632;2023-03-20T15:55:49;94927.00;;;11.17;64.71
56330;BME280;42236;48.058;10.632;2023-03-20T15:58:35;94930.69;;;11.13;65.00
56330;BME280;42236;48.058;10.632;2023-03-20T16:01:23;94932.94;;;11.10;65.16
56330;BME280;42236;48.058;10.632;2023-03-20T16:04:29;94926.75;;;11.10;64.89
56330;BME280;42236;48.058;10.632;2023-03-20T16:07:19;94923.94;;;11.06;64.85
56330;BME280;42236;48.058;10.632;2023-03-20T16:13:06;94934.28;;;10.92;65.26
56330;BME280;42236;48.058;10.632;2023-03-20T16:15:55;94924.59;;;10.91;65.31